Terminal Aerodrome Forecast
Issued by NWS Upton, NY

Home | Current Version | Previous Version | Text Only | Print | Product List | Glossary On
Versions: 1 2 3 4 5 6 7 8 9 10 11 12 13 14 15 16 17 18 19 20 21 22 23 24 25 26 27
000
FTUS41 KOKX 022034 AAB
TAFJFK
TAF AMD
KJFK 022034Z 0221/0324 17015KT P6SM SCT050 BKN250
     FM022300 18010KT P6SM SCT050 SCT250
     FM030200 20007KT P6SM FEW050
     FM030500 VRB03KT P6SM SKC
      TEMPO 0311/0313 5SM HZ
     FM031600 19008KT P6SM SCT060=

USA.gov is the U.S. government's official web portal to all federal, state and local government web resources and services.